CJZ9 weather

La Ronge Seaplane Base
Saskatchewan, Canada

Public forecast

Using degrees Celsius for public forecast. Weather courtesy of forecast.io.

Closest aviation weather report (METAR) to La Ronge Seaplane Base

Closest report is La Ronge Airport, 3.2 nm (5.9 km) NNE. Retrieved 2020/06/01 19:00 UTC (27 minutes ago):

CYVC 011900Z 27019G25KT 15SM OVC038 18/10 A2948 RMK SC8 PRESRR SLP988 DENSITY ALT 2400FT

Closest aviation forecast (TAF) to La Ronge Seaplane Base

Closest forecast is La Ronge Airport, 3.2 nm (5.9 km) NNE. Retrieved 2020/06/01 19:39 UTC (0 seconds ago):

TAF CYVC 011838Z 0119/0207 30018G28KT P6SM BKN040 BKN080 TEMPO 0119/0201 P6SM -SHRA BKN020 OVC040 FM020100 30010KT P6SM BKN040 TEMPO 0201/0207 SCT040 RMK NXT FCST BY 020100Z